createdAt,value
2023-05-08T00:01:00.188Z,96228.72
2023-05-08T00:03:28.289Z,96203.19
2023-05-08T00:05:56.744Z,96202.53
2023-05-08T00:08:26.061Z,96183.88
2023-05-08T00:10:53.798Z,96149.69
2023-05-08T00:13:21.663Z,96130.19
2023-05-08T00:15:49.537Z,96114.28
2023-05-08T00:18:17.457Z,96082.22
2023-05-08T00:20:45.392Z,96050.69
2023-05-08T00:23:13.305Z,96026.13
2023-05-08T00:25:42.566Z,96012.53
2023-05-08T00:28:10.430Z,96044.13
2023-05-08T00:30:38.237Z,96069.31
2023-05-08T00:33:06.136Z,96069.97
2023-05-08T00:35:33.995Z,96062.78
2023-05-08T00:38:01.772Z,96035.59
2023-05-08T00:40:29.633Z,96010.09
2023-05-08T00:42:59.003Z,95970.84
2023-05-08T00:45:33.631Z,95953.22
2023-05-08T00:48:01.565Z,95927.84
2023-05-08T00:50:30.087Z,95897.13
2023-05-08T00:52:59.204Z,95882.91
2023-05-08T00:55:27.129Z,95865.94
2023-05-08T00:57:55.015Z,95846.81
2023-05-08T01:00:24.689Z,95833.91
2023-05-08T01:02:53.192Z,95816.09
2023-05-08T01:05:21.300Z,95789.78
2023-05-08T01:07:49.394Z,95793.38
2023-05-08T01:10:17.506Z,95790.78
2023-05-08T01:13:00.344Z,95771.19
2023-05-08T01:15:33.277Z,95767.25
2023-05-08T01:18:12.442Z,95778.69
2023-05-08T01:20:46.685Z,95766.94
2023-05-08T01:23:44.028Z,95754.19
2023-05-08T01:26:48.786Z,95765.47
2023-05-08T01:29:49.110Z,95740.81
2023-05-08T01:32:24.762Z,95730.69
2023-05-08T01:35:01.702Z,95720.56
2023-05-08T01:37:33.864Z,95707.66
2023-05-08T01:40:11.776Z,95696.88
2023-05-08T01:42:50.364Z,95685.78
2023-05-08T01:45:26.760Z,95680.91
2023-05-08T01:48:06.149Z,95656.25
2023-05-08T01:50:39.511Z,95656.25
2023-05-08T01:53:13.782Z,95639.63
2023-05-08T01:55:44.275Z,95624.78
2023-05-08T01:58:13.744Z,95625.94
2023-05-08T02:00:44.068Z,95600.44
2023-05-08T02:03:15.253Z,95587.75
2023-05-08T02:05:45.412Z,95594.59
2023-05-08T02:08:15.945Z,95585.13
2023-05-08T02:10:44.643Z,95590.34
2023-05-08T02:13:19.129Z,95575.00
2023-05-08T02:15:49.385Z,95577.78
2023-05-08T02:18:21.622Z,95551.06
2023-05-08T02:20:51.759Z,95542.09
2023-05-08T02:23:20.507Z,95520.91
2023-05-08T02:25:49.440Z,95508.31
2023-05-08T02:28:18.370Z,95505.22
2023-05-08T02:30:47.408Z,95486.47
2023-05-08T02:33:20.742Z,95458.44
2023-05-08T02:35:50.752Z,95469.69
2023-05-08T02:38:21.772Z,95464.63
2023-05-08T02:40:56.538Z,95462.03
2023-05-08T02:43:24.979Z,95456.97
2023-05-08T02:46:11.822Z,95451.13
2023-05-08T02:48:50.192Z,95430.56
2023-05-08T02:51:23.296Z,95445.25
2023-05-08T02:53:55.940Z,95441.03
2023-05-08T02:56:33.856Z,95437.59
2023-05-08T02:59:11.371Z,95432.38
2023-05-08T03:01:45.307Z,95443.47
2023-05-08T03:04:24.181Z,95448.50
2023-05-08T03:06:55.049Z,95462.84
2023-05-08T03:09:26.399Z,95484.03
2023-05-08T03:12:03.812Z,95504.25
2023-05-08T03:14:36.900Z,95522.84
2023-05-08T03:17:08.568Z,95536.38
2023-05-08T03:19:40.327Z,95538.16
2023-05-08T03:22:09.862Z,95550.56
2023-05-08T03:24:39.695Z,95575.34
2023-05-08T03:27:09.945Z,95586.91
2023-05-08T03:29:40.494Z,95594.41
2023-05-08T03:32:09.522Z,95619.38
2023-05-08T03:34:40.411Z,95615.78
2023-05-08T03:37:08.931Z,95635.38
2023-05-08T03:39:37.091Z,95642.88
2023-05-08T03:42:05.199Z,95655.44
2023-05-08T03:44:34.515Z,95668.81
2023-05-08T03:47:04.355Z,95699.50
2023-05-08T03:49:34.662Z,95726.59
2023-05-08T03:52:05.169Z,95757.47
2023-05-08T03:54:32.950Z,95796.16
2023-05-08T03:57:00.924Z,95831.47
2023-05-08T03:59:37.482Z,95871.16
2023-05-08T04:02:14.170Z,95917.72
2023-05-08T04:04:43.048Z,95968.56
2023-05-08T04:07:20.386Z,96030.38
2023-05-08T04:09:59.285Z,96085.50
2023-05-08T04:12:34.532Z,96151.78
2023-05-08T04:15:05.913Z,96201.88
2023-05-08T04:17:39.191Z,96238.22
2023-05-08T04:20:09.883Z,96306.19
2023-05-08T04:22:41.672Z,96358.66
2023-05-08T04:25:11.728Z,96469.97
2023-05-08T04:27:40.328Z,96645.06
2023-05-08T04:30:11.488Z,96862.06
2023-05-08T04:32:41.372Z,97018.84
2023-05-08T04:35:11.402Z,97130.63
2023-05-08T04:37:42.834Z,97257.13
2023-05-08T04:40:11.763Z,97389.34
2023-05-08T04:42:42.927Z,97522.81
2023-05-08T04:45:11.840Z,97641.88
2023-05-08T04:47:42.722Z,97781.34
2023-05-08T04:50:12.009Z,97900.56
2023-05-08T04:52:41.442Z,98013.78
2023-05-08T04:55:11.371Z,98115.13
2023-05-08T04:57:39.729Z,98186.41
2023-05-08T05:00:08.704Z,98277.53
2023-05-08T05:02:36.462Z,98371.22
2023-05-08T05:05:04.370Z,98467.78
2023-05-08T05:07:32.274Z,98546.00
2023-05-08T05:10:02.149Z,98579.69
2023-05-08T05:12:29.858Z,98636.78
2023-05-08T05:14:57.571Z,98676.22
2023-05-08T05:17:25.389Z,98715.91
2023-05-08T05:19:53.591Z,98785.47
2023-05-08T05:22:21.394Z,98857.16
2023-05-08T05:24:49.148Z,98941.00
2023-05-08T05:27:21.163Z,99026.41
2023-05-08T05:29:49.229Z,99061.88
2023-05-08T05:32:17.323Z,99089.53
2023-05-08T05:34:45.199Z,99091.50
2023-05-08T05:37:13.127Z,99133.66
2023-05-08T05:39:41.046Z,99202.72
2023-05-08T05:42:08.860Z,99297.78
2023-05-08T05:44:38.052Z,99359.28
2023-05-08T05:47:06.282Z,99434.81
2023-05-08T05:49:34.511Z,99505.63
2023-05-08T05:52:02.462Z,99537.00
2023-05-08T05:54:33.283Z,99614.16
2023-05-08T05:57:01.119Z,99755.47
2023-05-08T05:59:28.908Z,99956.63
2023-05-08T06:01:58.065Z,100025.53
2023-05-08T06:04:26.445Z,100067.94
2023-05-08T06:06:54.383Z,100158.41
2023-05-08T06:09:22.141Z,100184.53
2023-05-08T06:11:49.899Z,100208.03
2023-05-08T06:14:17.626Z,100355.00
2023-05-08T06:16:45.985Z,100367.38
2023-05-08T06:19:15.222Z,100391.81
2023-05-08T06:21:43.196Z,100473.50
2023-05-08T06:24:11.822Z,100411.69
2023-05-08T06:26:39.574Z,100579.06
2023-05-08T06:29:07.403Z,100684.47
2023-05-08T06:31:35.400Z,100796.38
2023-05-08T06:34:03.311Z,100837.41
2023-05-08T06:36:32.588Z,100980.66
2023-05-08T06:39:00.702Z,101080.97
2023-05-08T06:41:28.594Z,101119.63
2023-05-08T06:43:56.367Z,101294.63
2023-05-08T06:46:24.216Z,101302.53
2023-05-08T06:48:52.075Z,101427.66
2023-05-08T06:51:23.068Z,101429.59
2023-05-08T06:53:52.366Z,101415.47
2023-05-08T06:56:20.183Z,101405.97
2023-05-08T06:59:00.557Z,101471.50
2023-05-08T07:01:35.696Z,101624.16
2023-05-08T07:04:03.669Z,101750.56
2023-05-08T07:06:31.980Z,101814.63
2023-05-08T07:09:01.166Z,101812.50
2023-05-08T07:11:29.011Z,101774.47
2023-05-08T07:13:56.925Z,101756.03
2023-05-08T07:16:24.824Z,101897.34
2023-05-08T07:18:52.620Z,102009.75
2023-05-08T07:21:21.319Z,102144.25
2023-05-08T07:23:51.724Z,102278.88
2023-05-08T07:26:21.503Z,102513.22
2023-05-08T07:28:50.784Z,102653.34
2023-05-08T07:31:18.610Z,102648.19
2023-05-08T07:33:47.820Z,102737.41
2023-05-08T07:36:15.777Z,102628.81
2023-05-08T07:38:43.531Z,102636.13
2023-05-08T07:41:11.550Z,102626.34
2023-05-08T07:43:40.961Z,102670.41
2023-05-08T07:46:09.903Z,102376.81
2023-05-08T07:48:37.688Z,102369.94
2023-05-08T07:51:06.110Z,102482.75
2023-05-08T07:53:33.990Z,102606.09
2023-05-08T07:56:01.743Z,102696.16
2023-05-08T07:58:29.466Z,102646.69
2023-05-08T08:24:54.178Z,103297.22
2023-05-08T08:27:23.136Z,103409.84
2023-05-08T08:29:52.541Z,103632.28
2023-05-08T08:32:26.554Z,103733.41
2023-05-08T08:34:54.392Z,103944.59
2023-05-08T08:37:22.330Z,104117.09
2023-05-08T08:39:52.508Z,104129.66
2023-05-08T08:42:20.317Z,104210.75
2023-05-08T08:44:48.142Z,104489.41
2023-05-08T08:47:18.171Z,104509.25
2023-05-08T08:49:49.561Z,104689.06
2023-05-08T08:52:23.963Z,104705.19
2023-05-08T08:54:54.203Z,104708.75
2023-05-08T08:57:24.340Z,104802.59
2023-05-08T08:59:54.098Z,104939.97
2023-05-08T09:02:23.592Z,105165.22
2023-05-08T09:04:51.662Z,105235.25
2023-05-08T09:07:19.667Z,105279.84
2023-05-08T09:09:48.755Z,105361.31
2023-05-08T09:12:18.272Z,105479.56
2023-05-08T09:14:46.125Z,105481.41
2023-05-08T09:17:14.191Z,105560.22
2023-05-08T09:19:42.356Z,105631.03
2023-05-08T09:22:10.853Z,105495.66
2023-05-08T09:25:06.575Z,105528.78
2023-05-08T09:27:36.832Z,105818.44
2023-05-08T09:30:07.161Z,105704.44
2023-05-08T09:32:38.931Z,105809.53
2023-05-08T09:35:12.770Z,105993.53
2023-05-08T09:37:44.220Z,106373.91
2023-05-08T09:40:19.867Z,106363.16
2023-05-08T09:42:50.000Z,106217.38
2023-05-08T09:45:29.275Z,106368.53
2023-05-08T09:47:57.248Z,106573.84
2023-05-08T09:50:25.679Z,106498.16
2023-05-08T09:52:53.602Z,106696.53
2023-05-08T09:55:21.629Z,106699.19
2023-05-08T09:57:56.616Z,106745.22
2023-05-08T10:00:25.341Z,106825.41
2023-05-08T10:02:58.400Z,106765.00
2023-05-08T10:05:29.742Z,107205.56
2023-05-08T10:07:58.059Z,107297.00
2023-05-08T10:10:30.863Z,106945.28
2023-05-08T10:13:00.135Z,106953.50
2023-05-08T10:15:31.125Z,106791.84
2023-05-08T10:18:04.628Z,106784.53
2023-05-08T10:20:33.645Z,106709.72
2023-05-08T10:23:03.378Z,107096.03
2023-05-08T10:28:33.149Z,106991.09
2023-05-08T10:31:02.100Z,107301.16
2023-05-08T10:33:32.541Z,107143.81
2023-05-08T10:36:01.558Z,107309.38
2023-05-08T10:38:32.430Z,107549.06
2023-05-08T10:41:02.265Z,107381.56
2023-05-08T10:43:32.108Z,107281.94
2023-05-08T10:46:08.506Z,107487.44
2023-05-08T10:48:44.076Z,107907.13
2023-05-08T10:51:17.519Z,108173.09
2023-05-08T10:53:51.845Z,107467.41
2023-05-08T10:56:19.668Z,107643.97
2023-05-08T10:58:57.213Z,107759.13
2023-05-08T11:01:26.343Z,107976.75
2023-05-08T11:03:55.919Z,107991.34
2023-05-08T11:06:46.280Z,107948.66
2023-05-08T11:09:22.888Z,108204.69
2023-05-08T11:12:05.052Z,108065.63
2023-05-08T11:14:36.063Z,108181.84
2023-05-08T11:17:06.532Z,108474.63
2023-05-08T11:19:34.601Z,108214.47
2023-05-08T11:22:16.291Z,108238.00
2023-05-08T11:24:50.257Z,107747.91
2023-05-08T11:27:18.406Z,107364.56
2023-05-08T11:30:23.921Z,107358.09
2023-05-08T11:33:16.714Z,107220.59
2023-05-08T11:35:50.878Z,107407.72
2023-05-08T11:38:21.262Z,107680.38
2023-05-08T11:40:53.205Z,107385.09
2023-05-08T11:43:28.110Z,106972.69
2023-05-08T11:46:01.798Z,106962.69
2023-05-08T11:48:29.624Z,107243.56
2023-05-08T11:50:57.856Z,107740.84
2023-05-08T11:53:25.690Z,107875.88
2023-05-08T11:55:54.435Z,107981.22
2023-05-08T11:58:22.955Z,108106.47
2023-05-08T12:00:51.250Z,108281.84
2023-05-08T12:03:23.531Z,108488.25
2023-05-08T12:05:54.418Z,108352.13
2023-05-08T12:08:22.213Z,108275.31
2023-05-08T12:10:53.864Z,108591.00
2023-05-08T12:13:22.867Z,108375.22
2023-05-08T12:15:53.266Z,108191.56
2023-05-08T12:18:23.331Z,108135.16
2023-05-08T12:20:54.495Z,107779.28
2023-05-08T12:23:22.287Z,107995.13
2023-05-08T12:25:55.133Z,108202.19
2023-05-08T12:28:24.000Z,108050.41
2023-05-08T12:30:52.128Z,108056.69
2023-05-08T12:33:20.153Z,108292.88
2023-05-08T12:35:49.625Z,108147.53
2023-05-08T12:38:17.630Z,108268.34
2023-05-08T12:40:49.170Z,108242.81
2023-05-08T12:43:17.011Z,108118.22
2023-05-08T12:45:44.851Z,107969.34
2023-05-08T12:48:13.938Z,107520.28
2023-05-08T12:50:43.630Z,107631.63
2023-05-08T12:53:14.736Z,107516.50
2023-05-08T12:55:52.776Z,107479.31
2023-05-08T12:58:22.398Z,107660.44
2023-05-08T13:00:52.085Z,107200.56
2023-05-08T13:03:24.858Z,107038.63
2023-05-08T13:05:53.996Z,107350.44
2023-05-08T13:08:31.095Z,107355.94
2023-05-08T13:10:58.876Z,107290.69
2023-05-08T13:13:28.184Z,107592.13
2023-05-08T13:15:56.836Z,107239.97
2023-05-08T13:18:27.483Z,107105.16
2023-05-08T13:20:55.435Z,107261.53
2023-05-08T13:23:27.011Z,107305.78
2023-05-08T13:25:56.526Z,107675.25
2023-05-08T13:28:25.803Z,107649.03
2023-05-08T13:30:53.627Z,107509.34
2023-05-08T13:33:21.446Z,107497.53
2023-05-08T13:35:49.334Z,107171.94
2023-05-08T13:38:17.151Z,107194.25
2023-05-08T13:40:46.874Z,107120.16
2023-05-08T13:43:14.667Z,107074.97
2023-05-08T13:45:42.539Z,107232.97
2023-05-08T13:48:10.405Z,107252.91
2023-05-08T13:50:38.186Z,107150.66
2023-05-08T13:53:06.166Z,107023.13
2023-05-08T13:55:33.992Z,107188.50
2023-05-08T13:58:03.466Z,107459.97
2023-05-08T14:00:31.249Z,107416.41
2023-05-08T14:02:59.055Z,107454.47
2023-05-08T14:05:27.052Z,107317.72
2023-05-08T14:07:54.772Z,107212.78
2023-05-08T14:10:22.865Z,106672.84
2023-05-08T14:12:50.992Z,106653.69
2023-05-08T14:15:20.406Z,106478.81
2023-05-08T14:17:48.407Z,106442.75
2023-05-08T14:20:16.267Z,105941.72
2023-05-08T14:22:44.168Z,106286.91
2023-05-08T14:25:12.407Z,106147.50
2023-05-08T14:27:40.455Z,106270.66
2023-05-08T14:30:09.905Z,106221.13
2023-05-08T14:32:39.152Z,106372.25
2023-05-08T14:35:10.327Z,106664.16
2023-05-08T14:37:38.763Z,106667.72
2023-05-08T14:40:07.972Z,106860.69
2023-05-08T14:42:36.567Z,106925.69
2023-05-08T14:45:04.886Z,106618.91
2023-05-08T14:47:33.078Z,106602.63
2023-05-08T14:50:02.891Z,106309.88
2023-05-08T14:52:30.690Z,106451.13
2023-05-08T14:54:59.247Z,106245.88
2023-05-08T14:57:27.233Z,105853.13
2023-05-08T14:59:56.207Z,105916.09
2023-05-08T15:02:24.318Z,105850.41
2023-05-08T15:04:52.352Z,105522.13
2023-05-08T15:07:21.657Z,105545.34
2023-05-08T15:09:49.545Z,105480.78
2023-05-08T15:12:17.369Z,105610.72
2023-05-08T15:14:45.150Z,105298.00
2023-05-08T15:17:12.986Z,104913.63
2023-05-08T15:19:40.776Z,105031.53
2023-05-08T15:22:08.603Z,104919.59
2023-05-08T15:24:37.778Z,104694.78
2023-05-08T15:27:05.589Z,104504.91
2023-05-08T15:29:33.538Z,104740.16
2023-05-08T15:32:01.473Z,104895.41
2023-05-08T15:34:33.009Z,104642.84
2023-05-08T15:37:01.061Z,104573.19
2023-05-08T15:39:28.922Z,104603.56
2023-05-08T15:41:58.042Z,104447.50
2023-05-08T15:44:28.738Z,104220.47
2023-05-08T15:47:02.038Z,104224.81
2023-05-08T15:49:29.859Z,104062.97
2023-05-08T15:51:57.702Z,103875.53
2023-05-08T15:54:25.750Z,103986.53
2023-05-08T15:56:53.600Z,104183.66
2023-05-08T15:59:22.770Z,104261.97
2023-05-08T16:01:52.054Z,104366.13
2023-05-08T16:04:20.824Z,104521.28
2023-05-08T16:06:48.554Z,104421.44
2023-05-08T16:09:16.435Z,104280.59
2023-05-08T16:11:44.216Z,104110.78
2023-05-08T16:14:12.094Z,103891.28
2023-05-08T16:16:41.486Z,103599.50
2023-05-08T16:19:09.465Z,103538.97
2023-05-08T16:21:37.324Z,103407.88
2023-05-08T16:24:05.574Z,103190.13
2023-05-08T16:26:33.428Z,102879.91
2023-05-08T16:29:01.498Z,102716.56
2023-05-08T16:31:29.386Z,102570.28
2023-05-08T16:33:58.659Z,102363.22
2023-05-08T16:36:26.802Z,102174.19
2023-05-08T16:38:54.644Z,101982.38
2023-05-08T16:41:23.755Z,101822.50
2023-05-08T16:43:51.718Z,101660.34
2023-05-08T16:46:29.208Z,101559.59
2023-05-08T16:49:01.469Z,101498.09
2023-05-08T16:51:29.326Z,101445.66
2023-05-08T16:53:58.080Z,101342.09
2023-05-08T16:56:26.861Z,101308.09
2023-05-08T16:58:54.648Z,101254.88
2023-05-08T17:01:22.750Z,101220.44
2023-05-08T17:03:50.790Z,101207.50
2023-05-08T17:06:20.719Z,101139.25
2023-05-08T17:08:48.473Z,101060.63
2023-05-08T17:11:16.524Z,101010.88
2023-05-08T17:13:46.173Z,100988.84
2023-05-08T17:16:13.996Z,100975.00
2023-05-08T17:18:41.940Z,100925.19
2023-05-08T17:21:09.816Z,100910.34
2023-05-08T17:23:39.095Z,100859.53
2023-05-08T17:26:07.038Z,100833.56
2023-05-08T17:28:34.878Z,100789.00
2023-05-08T17:31:02.943Z,100735.69
2023-05-08T17:33:30.926Z,100700.97
2023-05-08T17:35:58.693Z,100677.31
2023-05-08T17:38:26.523Z,100627.41
2023-05-08T17:40:56.385Z,100599.50
2023-05-08T17:43:24.414Z,100556.09
2023-05-08T17:45:53.637Z,100498.47
2023-05-08T17:48:22.404Z,100473.38
2023-05-08T17:50:50.317Z,100439.31
2023-05-08T17:53:19.999Z,100405.38
2023-05-08T17:55:48.396Z,100349.06
2023-05-08T17:58:17.536Z,100311.25
2023-05-08T18:00:45.393Z,100286.31
2023-05-08T18:03:13.210Z,100237.53
2023-05-08T18:05:41.145Z,100221.66
2023-05-08T18:08:09.564Z,100182.69
2023-05-08T18:10:39.286Z,100148.81
2023-05-08T18:13:07.216Z,100111.31
2023-05-08T18:15:39.027Z,100067.84
2023-05-08T18:18:06.947Z,100046.22
2023-05-08T18:20:35.018Z,100022.63
2023-05-08T18:23:02.826Z,99969.91
2023-05-08T18:25:30.639Z,99911.69
2023-05-08T18:27:59.031Z,99897.66
2023-05-08T18:30:26.836Z,99884.84
2023-05-08T18:32:55.940Z,99872.66
2023-05-08T18:35:23.876Z,99837.88
2023-05-08T18:37:51.686Z,99795.50
2023-05-08T18:40:19.736Z,99754.81
2023-05-08T18:42:48.489Z,99705.31
2023-05-08T18:45:16.613Z,99617.72
2023-05-08T18:47:44.420Z,99597.69
2023-05-08T18:50:13.786Z,99572.50
2023-05-08T18:52:41.755Z,99585.38
2023-05-08T18:55:10.233Z,99592.50
2023-05-08T18:57:38.071Z,99581.31
2023-05-08T19:00:07.273Z,99530.03
2023-05-08T19:02:35.310Z,99505.94
2023-05-08T19:05:03.288Z,99485.78
2023-05-08T19:07:32.464Z,99479.78
2023-05-08T19:10:00.429Z,99447.69
2023-05-08T19:12:28.222Z,99456.38
2023-05-08T19:14:56.028Z,99446.97
2023-05-08T19:17:23.861Z,99369.44
2023-05-08T19:19:52.846Z,99331.81
2023-05-08T19:22:20.866Z,99331.81
2023-05-08T19:24:52.369Z,99292.78
2023-05-08T19:27:20.079Z,99278.09
2023-05-08T19:29:48.046Z,99263.56
2023-05-08T19:32:16.041Z,99257.41
2023-05-08T19:34:43.789Z,99223.97
2023-05-08T19:37:11.560Z,99189.16
2023-05-08T19:39:39.372Z,99173.53
2023-05-08T19:42:10.274Z,99129.50
2023-05-08T19:44:38.158Z,99083.66
2023-05-08T19:47:06.108Z,99029.63
2023-05-08T19:49:34.135Z,98965.69
2023-05-08T19:52:02.078Z,98940.00
2023-05-08T19:54:30.417Z,98946.56
2023-05-08T19:56:58.346Z,98932.75
2023-05-08T19:59:27.648Z,98884.44
2023-05-08T20:01:55.618Z,98832.56
2023-05-08T20:04:24.204Z,98814.72
2023-05-08T20:06:52.103Z,98811.94
2023-05-08T20:09:20.050Z,98810.94
2023-05-08T20:11:48.131Z,98718.91
2023-05-08T20:14:16.064Z,98657.84
2023-05-08T20:16:45.553Z,98637.22
2023-05-08T20:19:13.417Z,98584.44
2023-05-08T20:21:41.231Z,98600.03
2023-05-08T20:24:09.173Z,98579.69
2023-05-08T20:26:37.379Z,98508.97
2023-05-08T20:29:05.203Z,98474.19
2023-05-08T20:31:33.117Z,98453.56
2023-05-08T20:34:02.270Z,98423.50
2023-05-08T20:36:30.095Z,98416.84
2023-05-08T20:38:58.021Z,98340.03
2023-05-08T20:41:25.893Z,98312.78
2023-05-08T20:43:53.680Z,98269.72
2023-05-08T20:46:21.733Z,98249.84
2023-05-08T20:48:51.200Z,98235.22
2023-05-08T20:51:20.362Z,98195.75
2023-05-08T20:53:48.344Z,98128.78
2023-05-08T20:56:18.869Z,98122.13
2023-05-08T20:58:47.201Z,98112.41
2023-05-08T21:01:15.009Z,98078.09
2023-05-08T21:03:43.035Z,98006.06
2023-05-08T21:06:11.666Z,97974.72
2023-05-08T21:08:42.015Z,97934.31
2023-05-08T21:11:09.963Z,97933.34
2023-05-08T21:13:37.748Z,97894.66
2023-05-08T21:16:07.504Z,97823.63
2023-05-08T21:18:35.604Z,97770.53
2023-05-08T21:21:03.683Z,97725.94
2023-05-08T21:23:31.753Z,97704.44
2023-05-08T21:26:01.380Z,97658.84
2023-05-08T21:28:29.247Z,97621.50
2023-05-08T21:30:57.282Z,97571.09
2023-05-08T21:33:25.162Z,97538.19
2023-05-08T21:35:52.958Z,97492.31
2023-05-08T21:38:20.732Z,97450.44
2023-05-08T21:40:48.514Z,97399.91
2023-05-08T21:43:17.747Z,97350.44
2023-05-08T21:45:45.589Z,97307.91
2023-05-08T21:48:13.534Z,97260.75
2023-05-08T21:50:41.500Z,97221.53
2023-05-08T21:53:09.359Z,97183.78
2023-05-08T21:55:37.334Z,97156.59
2023-05-08T21:58:05.221Z,97122.66
2023-05-08T22:00:34.396Z,97085.09
2023-05-08T22:03:02.300Z,97054.47
2023-05-08T22:05:30.234Z,96993.19
2023-05-08T22:07:58.093Z,97009.75
2023-05-08T22:10:26.037Z,96981.63
2023-05-08T22:12:53.982Z,96956.25
2023-05-08T22:15:29.565Z,96946.88
2023-05-08T22:17:59.742Z,96941.63
2023-05-08T22:20:27.783Z,96929.09
2023-05-08T22:22:55.852Z,96889.50
2023-05-08T22:25:25.177Z,96891.47
2023-05-08T22:27:54.020Z,96879.47
2023-05-08T22:30:22.105Z,96868.28
2023-05-08T22:32:55.066Z,96856.41
2023-05-08T22:35:26.885Z,96840.47
2023-05-08T22:37:55.629Z,96830.78
2023-05-08T22:40:23.718Z,96797.75
2023-05-08T22:42:53.534Z,96788.38
2023-05-08T22:45:21.455Z,96754.19
2023-05-08T22:47:49.530Z,96730.66
2023-05-08T22:50:17.530Z,96709.00
2023-05-08T22:52:46.868Z,96713.44
2023-05-08T22:55:15.508Z,96703.91
2023-05-08T22:57:43.634Z,96690.44
2023-05-08T23:00:12.677Z,96688.66
2023-05-08T23:02:40.523Z,96679.59
2023-05-08T23:05:09.483Z,96690.28
2023-05-08T23:07:37.352Z,96708.19
2023-05-08T23:10:07.476Z,96702.28
2023-05-08T23:12:37.077Z,96663.47
2023-05-08T23:15:05.693Z,96641.81
2023-05-08T23:17:33.577Z,96626.72
2023-05-08T23:20:01.518Z,96618.84
2023-05-08T23:22:29.650Z,96599.47
2023-05-08T23:24:57.456Z,96651.19
2023-05-08T23:27:26.891Z,96679.94
2023-05-08T23:29:54.791Z,96743.69
2023-05-08T23:32:22.551Z,96769.34
2023-05-08T23:34:50.531Z,96750.56
2023-05-08T23:37:18.351Z,96725.94
2023-05-08T23:39:46.216Z,96698.81
2023-05-08T23:42:14.316Z,96641.47
2023-05-08T23:44:43.513Z,96617.88
2023-05-08T23:47:11.829Z,96638.53
2023-05-08T23:49:40.045Z,96628.03
2023-05-08T23:52:10.044Z,96618.19
2023-05-08T23:54:37.965Z,96610.97
2023-05-08T23:57:06.050Z,96592.25
2023-05-08T23:59:34.094Z,96616.22
